Plesetsk, Russia
Current Conditions -  °F | °C
As of 10:00 AM on Sunday 26 Oct 2014 (Local Time) from ULAA Reporting Station
Light Snow Light Snow  
Wind Chill: 14°   Ceiling: 600
Heat Index: 25°   Visibility: 2.3mi
Dew Point: 25°   Wind: 11mph
Humidity: 100%   Direction: 170°S
Pressure: 30.12"   Gusts: 18mph
Location:  62.72°N, 40.28°E
Report Text: ULAA 260700Z 17005G08MPS 130V210 3700 -SN OVC006 M04/M04 Q1020 BECMG 1400 SN OVC004 RMK QBB180 QFE764/1018 SC042
Loading
Personal Weather Stations






























Interactive Weather Map
Tropical Storm Tracking
New forecast layout! Learn more

10-Day Weather Forecast

Advertisements
Track Severe Weather on mobile